Elwyn Terrace, Pennsylvania
Current Conditions -  °F | °C
As of 11:53 PM on Wednesday 22 Oct 2014 (Local Time) from KLNS Reporting Station
Broken Clouds Broken Clouds  
Wind Chill: 51°   Ceiling: 2900
Heat Index: 51°   Visibility: 10mi
Dew Point: 43°   Wind: 17mph
Humidity: 74%   Direction: 330°NNW
Pressure: 29.88"   Gusts: NA
Location:  40.1777°N, 76.4291°W
Report Text: KLNS 230353Z AUTO 33015KT 10SM BKN029 BKN060 11/06 A2988 RMK AO2 SLP118 T01060061
Loading
Personal Weather Stations






























Interactive Weather Map
Tropical Storm Tracking
New forecast layout! Learn more

10-Day Weather Forecast

Advertisements
Track Severe Weather on mobile